sensor_id;sensor_type;location;lat;lon;timestamp;P1;durP1;ratioP1;P2;durP2;ratioP2
26177;SDS011;13924;47.670;10.310;2023-02-28T00:00:39;16.3;;;11.0;;
26177;SDS011;13924;47.670;10.310;2023-02-28T00:15:39;14.8;;;11.5;;
26177;SDS011;13924;47.670;10.310;2023-02-28T00:30:40;13.9;;;11.5;;
26177;SDS011;13924;47.670;10.310;2023-02-28T00:45:40;18.3;;;11.7;;
26177;SDS011;13924;47.670;10.310;2023-02-28T01:00:43;16.6;;;11.8;;
26177;SDS011;13924;47.670;10.310;2023-02-28T01:15:43;13.4;;;10.9;;
26177;SDS011;13924;47.670;10.310;2023-02-28T01:30:42;16.3;;;11.2;;
26177;SDS011;13924;47.670;10.310;2023-02-28T01:45:43;15.7;;;11.7;;
26177;SDS011;13924;47.670;10.310;2023-02-28T02:00:45;15.2;;;10.9;;
26177;SDS011;13924;47.670;10.310;2023-02-28T02:01:27;17.1;;;13.4;;
26177;SDS011;13924;47.670;10.310;2023-02-28T02:15:45;13.4;;;11.0;;
26177;SDS011;13924;47.670;10.310;2023-02-28T02:30:51;18.1;;;11.3;;
26177;SDS011;13924;47.670;10.310;2023-02-28T02:45:46;15.2;;;11.0;;
26177;SDS011;13924;47.670;10.310;2023-02-28T03:00:47;16.3;;;11.9;;
26177;SDS011;13924;47.670;10.310;2023-02-28T03:15:52;19.6;;;12.8;;
26177;SDS011;13924;47.670;10.310;2023-02-28T03:30:49;17.2;;;12.2;;
26177;SDS011;13924;47.670;10.310;2023-02-28T03:45:51;22.3;;;13.3;;
26177;SDS011;13924;47.670;10.310;2023-02-28T04:00:50;18.3;;;12.5;;
26177;SDS011;13924;47.670;10.310;2023-02-28T04:15:49;21.6;;;13.2;;
26177;SDS011;13924;47.670;10.310;2023-02-28T04:30:54;21.7;;;14.7;;
26177;SDS011;13924;47.670;10.310;2023-02-28T04:45:51;22.8;;;14.4;;
26177;SDS011;13924;47.670;10.310;2023-02-28T05:00:55;23.7;;;14.1;;
26177;SDS011;13924;47.670;10.310;2023-02-28T05:15:55;26.4;;;15.2;;
26177;SDS011;13924;47.670;10.310;2023-02-28T05:30:53;23.0;;;14.2;;
26177;SDS011;13924;47.670;10.310;2023-02-28T05:45:53;28.6;;;15.6;;
26177;SDS011;13924;47.670;10.310;2023-02-28T05:55:41;27.3;;;14.7;;
26177;SDS011;13924;47.670;10.310;2023-02-28T06:10:43;26.3;;;15.6;;
26177;SDS011;13924;47.670;10.310;2023-02-28T06:25:44;26.8;;;15.1;;
26177;SDS011;13924;47.670;10.310;2023-02-28T06:40:48;28.4;;;15.4;;
26177;SDS011;13924;47.670;10.310;2023-02-28T06:55:43;21.6;;;12.2;;
26177;SDS011;13924;47.670;10.310;2023-02-28T07:10:45;19.7;;;13.6;;
26177;SDS011;13924;47.670;10.310;2023-02-28T07:25:44;27.7;;;15.2;;
26177;SDS011;13924;47.670;10.310;2023-02-28T07:40:46;27.9;;;15.5;;
26177;SDS011;13924;47.670;10.310;2023-02-28T07:55:46;25.8;;;14.3;;
26177;SDS011;13924;47.670;10.310;2023-02-28T08:10:47;24.3;;;14.5;;
26177;SDS011;13924;47.670;10.310;2023-02-28T08:25:52;27.3;;;14.9;;
26177;SDS011;13924;47.670;10.310;2023-02-28T08:40:47;23.3;;;14.4;;
26177;SDS011;13924;47.670;10.310;2023-02-28T08:55:55;22.6;;;13.4;;
26177;SDS011;13924;47.670;10.310;2023-02-28T09:10:49;24.6;;;13.6;;
26177;SDS011;13924;47.670;10.310;2023-02-28T09:25:50;19.1;;;12.0;;
26177;SDS011;13924;47.670;10.310;2023-02-28T09:40:50;19.4;;;13.2;;
26177;SDS011;13924;47.670;10.310;2023-02-28T09:55:54;19.8;;;13.3;;
26177;SDS011;13924;47.670;10.310;2023-02-28T10:10:51;18.2;;;12.9;;
26177;SDS011;13924;47.670;10.310;2023-02-28T10:25:54;22.5;;;13.3;;
26177;SDS011;13924;47.670;10.310;2023-02-28T10:40:52;22.8;;;15.0;;
26177;SDS011;13924;47.670;10.310;2023-02-28T10:55:56;23.5;;;15.8;;
26177;SDS011;13924;47.670;10.310;2023-02-28T11:10:55;23.3;;;15.3;;
26177;SDS011;13924;47.670;10.310;2023-02-28T11:25:55;24.1;;;14.9;;
26177;SDS011;13924;47.670;10.310;2023-02-28T11:41:01;26.8;;;16.1;;
26177;SDS011;13924;47.670;10.310;2023-02-28T12:11:00;32.2;;;18.5;;
26177;SDS011;13924;47.670;10.310;2023-02-28T12:26:00;32.1;;;19.3;;
26177;SDS011;13924;47.670;10.310;2023-02-28T12:40:59;35.5;;;20.2;;
26177;SDS011;13924;47.670;10.310;2023-02-28T12:56:04;36.0;;;19.9;;
26177;SDS011;13924;47.670;10.310;2023-02-28T13:11:02;38.2;;;21.5;;
26177;SDS011;13924;47.670;10.310;2023-02-28T13:25:59;37.5;;;20.4;;
26177;SDS011;13924;47.670;10.310;2023-02-28T13:56:02;43.1;;;21.0;;
26177;SDS011;13924;47.670;10.310;2023-02-28T14:11:05;47.2;;;23.8;;
26177;SDS011;13924;47.670;10.310;2023-02-28T14:26:03;51.3;;;24.5;;
26177;SDS011;13924;47.670;10.310;2023-02-28T14:41:05;51.8;;;25.9;;
26177;SDS011;13924;47.670;10.310;2023-02-28T14:56:16;52.0;;;25.9;;
26177;SDS011;13924;47.670;10.310;2023-02-28T15:11:12;52.9;;;25.7;;
26177;SDS011;13924;47.670;10.310;2023-02-28T15:26:05;53.8;;;25.8;;
26177;SDS011;13924;47.670;10.310;2023-02-28T15:41:20;50.0;;;24.9;;
26177;SDS011;13924;47.670;10.310;2023-02-28T15:56:12;48.7;;;23.9;;
26177;SDS011;13924;47.670;10.310;2023-02-28T16:11:07;45.3;;;22.1;;
26177;SDS011;13924;47.670;10.310;2023-02-28T16:26:06;52.1;;;24.0;;
26177;SDS011;13924;47.670;10.310;2023-02-28T16:41:12;50.5;;;23.9;;
26177;SDS011;13924;47.670;10.310;2023-02-28T16:56:11;43.3;;;22.0;;
26177;SDS011;13924;47.670;10.310;2023-02-28T17:11:09;52.8;;;24.2;;
26177;SDS011;13924;47.670;10.310;2023-02-28T17:26:12;60.5;;;27.6;;
26177;SDS011;13924;47.670;10.310;2023-02-28T17:41:13;52.8;;;25.6;;
26177;SDS011;13924;47.670;10.310;2023-02-28T17:56:12;54.6;;;26.2;;
26177;SDS011;13924;47.670;10.310;2023-02-28T18:11:12;61.0;;;28.3;;
26177;SDS011;13924;47.670;10.310;2023-02-28T18:26:13;57.5;;;26.4;;
26177;SDS011;13924;47.670;10.310;2023-02-28T18:41:15;62.1;;;27.9;;
26177;SDS011;13924;47.670;10.310;2023-02-28T18:56:15;60.2;;;27.8;;
26177;SDS011;13924;47.670;10.310;2023-02-28T19:11:15;55.2;;;28.6;;
26177;SDS011;13924;47.670;10.310;2023-02-28T19:26:29;77.7;;;33.2;;
26177;SDS011;13924;47.670;10.310;2023-02-28T19:41:21;63.7;;;29.3;;
26177;SDS011;13924;47.670;10.310;2023-02-28T19:56:17;64.5;;;30.5;;
26177;SDS011;13924;47.670;10.310;2023-02-28T20:11:22;68.9;;;30.7;;
26177;SDS011;13924;47.670;10.310;2023-02-28T20:26:26;65.0;;;29.8;;
26177;SDS011;13924;47.670;10.310;2023-02-28T20:41:28;64.9;;;29.2;;
26177;SDS011;13924;47.670;10.310;2023-02-28T20:56:24;62.3;;;29.9;;
26177;SDS011;13924;47.670;10.310;2023-02-28T21:11:31;69.7;;;30.2;;
26177;SDS011;13924;47.670;10.310;2023-02-28T21:26:24;70.2;;;31.3;;
26177;SDS011;13924;47.670;10.310;2023-02-28T21:41:23;72.5;;;30.6;;
26177;SDS011;13924;47.670;10.310;2023-02-28T21:56:23;72.7;;;32.9;;
26177;SDS011;13924;47.670;10.310;2023-02-28T22:11:24;76.1;;;32.7;;
26177;SDS011;13924;47.670;10.310;2023-02-28T22:26:24;69.3;;;30.3;;
26177;SDS011;13924;47.670;10.310;2023-02-28T22:41:25;63.1;;;29.8;;
26177;SDS011;13924;47.670;10.310;2023-02-28T22:56:25;70.7;;;31.4;;
26177;SDS011;13924;47.670;10.310;2023-02-28T23:00:49;81.5;;;33.2;;
26177;SDS011;13924;47.670;10.310;2023-02-28T23:15:37;69.1;;;31.5;;
26177;SDS011;13924;47.670;10.310;2023-02-28T23:30:36;73.1;;;31.9;;
26177;SDS011;13924;47.670;10.310;2023-02-28T23:45:38;73.1;;;32.6;;
